Latest Weather Observations for Mount Crawford

IDS60801

Issued at 8:31 pm CDT Sunday 1 February 2015 (issued every 30 minutes, with the page automatically refreshed every 10 minutes)

About weather observations | Map of weather stations | Latest weather observations for SA | Other Formats
Station Details ID: 023878 Name: MT CRAWFORD AWS Lat: -34.73 Lon: 138.93 Height: 525.0 m
Data from the previous 72 hours. | See also: Recent months at Mount Crawford
Date/Time
CDT
Temp
°C
App
Temp
°C
Dew
Point
Rel
Hum
%
Delta-T
°C
Wind Press
QNH
hPa
Press
MSL
hPa
Rain
since 9 am
mm
Dir
 
Spd
km/h
Gust
km/h
Spd
kts
Gust
kts
01/08:30pm 11.8 6.0 8.1 78 1.9 S 28 39 15 21 1018.3 1016.1 0.0
01/08:00pm 12.2 6.6 7.3 72 2.4 S 26 37 14 20 1018.2 1016.0 0.0
01/07:30pm 14.4 10.0 7.5 63 3.5 SSW 20 32 11 17 1017.9 1015.7 0.0
01/07:00pm 14.2 8.3 7.7 65 3.3 SSW 28 41 15 22 1017.6 1015.4 0.0
01/06:30pm 14.7 8.8 7.7 63 3.6 SSW 28 41 15 22 1017.5 1015.2 0.0
01/06:00pm 15.8 10.0 8.1 60 4.0 SW 28 37 15 20 1017.3 1015.0 0.0
01/05:30pm 15.5 10.6 8.3 62 3.7 S 24 37 13 20 1017.4 1015.1 0.0
01/05:00pm 16.4 11.5 8.6 60 4.1 SSW 24 35 13 19 1017.3 1015.0 0.0
01/04:30pm 16.2 11.4 8.7 61 3.9 SSW 24 33 13 18 1017.2 1014.9 0.0
01/04:11pm 14.8 9.3 9.2 69 2.9 SSW 28 46 15 25 1017.4 1015.1 0.0
01/04:00pm 15.5 10.6 10.1 70 2.9 SSW 26 37 14 20 1017.5 1015.2 0.0
01/03:30pm 16.1 12.3 9.8 66 3.4 SSW 20 35 11 19 1017.5 1015.2 0.0
01/03:00pm 14.9 10.3 9.5 70 2.9 SSW 24 35 13 19 1017.5 1015.2 0.0
01/02:30pm 15.1 10.4 10.5 74 2.5 S 26 37 14 20 1017.5 1015.2 0.0
01/02:00pm 14.8 10.7 10.0 73 2.6 S 22 39 12 21 1017.5 1015.2 0.0
01/01:30pm 16.0 12.2 9.9 67 3.3 S 20 30 11 16 1017.5 1015.2 0.0
01/01:00pm 15.7 12.2 10.9 73 2.6 S 20 32 11 17 1017.7 1015.5 0.0
01/12:30pm 13.6 8.8 11.8 89 1.0 S 28 37 15 20 1018.0 1015.8 0.0
01/12:00pm 15.2 11.2 10.6 74 2.5 S 22 33 12 18 1017.9 1015.7 0.0
01/11:30am 13.4 9.5 10.9 85 1.3 SSW 22 37 12 20 1018.1 1015.9 0.0
01/11:00am 14.1 10.7 10.5 79 1.9 S 19 28 10 15 1018.0 1015.8 0.0
01/10:30am 13.7 9.4 10.9 83 1.5 SSE 24 32 13 17 1018.0 1015.8 0.0
01/10:00am 12.9 9.8 12.1 95 0.4 SSE 20 33 11 18 1017.8 1015.5 0.0
01/09:30am 11.5 8.1 11.2 98 0.2 S 20 32 11 17 1017.7 1015.4 0.0
01/09:00am 11.7 8.6 11.5 99 0.1 SSE 19 30 10 16 1017.3 1015.0 0.0
01/08:30am 11.2 6.6 10.9 98 0.2 SSE 26 39 14 21 1016.8 1014.6 0.0
01/08:00am 10.9 6.6 10.7 99 0.1 SSE 24 43 13 23 1016.6 1014.4 0.0
01/07:30am 10.6 5.8 10.4 99 0.1 SSE 26 39 14 21 1016.2 1013.9 0.0
01/07:00am 10.3 5.8 10.1 99 0.1 SE 24 35 13 19 1015.8 1013.5 0.0
01/06:30am 10.5 6.0 9.9 96 0.3 SE 24 39 13 21 1015.4 1013.1 0.0
01/06:00am 10.6 6.0 9.5 93 0.6 SSE 24 32 13 17 1015.3 1013.0 0.0
01/05:30am 10.6 6.0 9.8 95 0.4 SSE 24 35 13 19 1015.4 1013.1 0.0
01/05:00am 10.4 5.5 9.9 97 0.3 SSE 26 43 14 23 1015.3 1013.0 0.0
01/04:30am 10.3 5.0 10.0 98 0.2 SSE 28 37 15 20 1015.3 1013.0 0.0
01/04:00am 10.6 5.4 10.1 97 0.3 SSE 28 41 15 22 1015.3 1013.0 0.0
01/03:30am 11.2 6.6 9.5 89 0.9 SSE 24 35 13 19 1015.4 1013.1 0.0
01/03:00am 10.9 6.2 9.2 89 0.9 SSE 24 35 13 19 1015.4 1013.1 0.0
01/02:30am 10.9 5.3 8.7 86 1.1 SSE 28 43 15 23 1015.4 1013.1 0.0
01/02:00am 11.2 5.2 8.8 85 1.2 SSE 30 52 16 28 1015.6 1013.3 0.0
01/01:56am 11.2 5.2 8.8 85 1.2 SSE 30 52 16 28 1015.6 1013.3 0.0
01/01:30am 11.2 5.6 8.9 86 1.2 SSE 28 41 15 22 1015.9 1013.6 0.0
01/01:00am 11.1 5.5 8.8 86 1.2 SSE 28 41 15 22 1016.1 1013.8 0.0
01/12:30am 11.2 6.1 9.1 87 1.1 SSE 26 39 14 21 1016.3 1014.0 0.0
01/12:00am 11.3 6.9 9.0 86 1.2 SSE 22 33 12 18 1016.5 1014.3 0.0
 
Date/Time
CDT
Temp
°C
App
Temp
°C
Dew
Point
Rel
Hum
%
Delta-T
°C
Wind Press
QNH
hPa
Press
MSL
hPa
Rain
since 9 am
mm
Dir
 
Spd
km/h
Gust
km/h
Spd
kts
Gust
kts
31/11:30pm 11.3 6.2 9.2 87 1.1 SSE 26 35 14 19 1016.7 1014.5 0.0
31/11:00pm 11.4 6.8 9.5 88 1.0 SSE 24 41 13 22 1016.4 1014.1 0.0
31/10:30pm 11.3 7.4 9.4 88 1.0 SSE 20 35 11 19 1016.4 1014.1 0.0
31/10:00pm 11.7 7.1 9.6 87 1.1 SE 24 41 13 22 1016.2 1013.9 0.0
31/09:30pm 11.6 7.0 9.5 87 1.1 SE 24 35 13 19 1015.8 1013.5 0.0
31/09:00pm 11.9 6.4 9.1 83 1.4 SSE 28 39 15 21 1015.7 1013.4 0.0
31/08:30pm 12.4 7.2 8.9 79 1.8 SSE 26 41 14 22 1015.5 1013.2 0.0
31/08:00pm 13.1 8.1 9.5 79 1.9 SSE 26 43 14 23 1015.2 1012.9 0.0
31/07:30pm 13.9 8.8 9.3 74 2.4 SSE 26 37 14 20 1015.2 1012.9 0.0
31/07:00pm 14.4 9.6 9.0 70 2.8 SSE 24 37 13 20 1015.3 1013.0 0.0
31/06:30pm 15.4 11.4 8.9 65 3.4 SSE 20 35 11 19 1015.3 1013.0 0.0
31/06:00pm 15.6 11.1 8.4 62 3.7 S 22 33 12 18 1015.1 1012.8 0.0
31/05:30pm 16.4 10.2 7.9 57 4.4 S 30 44 16 24 1014.6 1012.3 0.0
31/05:00pm 17.7 12.7 8.0 53 5.1 S 24 37 13 20 1014.8 1012.6 0.0
31/04:30pm 18.1 13.0 7.8 51 5.4 SSE 24 35 13 19 1014.6 1012.3 0.0
31/04:00pm 18.7 13.8 8.4 51 5.5 SSE 24 37 13 20 1014.8 1012.6 0.0
31/03:30pm 18.9 14.6 8.0 49 5.7 S 20 35 11 19 1014.8 1012.6 0.0
31/03:00pm 19.3 15.2 7.7 47 6.1 S 19 28 10 15 1014.8 1012.6 0.0
31/02:30pm 19.9 15.2 7.6 45 6.5 SSE 22 35 12 19 1014.9 1012.7 0.0
31/02:00pm 18.9 14.2 6.1 43 6.5 SE 20 33 11 18 1014.9 1012.7 0.0
31/01:30pm 18.5 13.0 6.0 44 6.3 SSE 24 35 13 19 1015.1 1012.8 0.0
31/01:00pm 19.6 14.8 7.4 45 6.4 SE 22 35 12 19 1015.3 1013.0 0.0
31/12:30pm 17.5 13.0 6.1 47 5.7 S 19 32 10 17 1015.8 1013.5 0.0
31/12:00pm 17.8 12.6 7.2 50 5.5 SSE 24 35 13 19 1016.0 1013.7 0.0
31/11:30am 17.0 13.0 6.8 51 5.2 SE 17 28 9 15 1016.2 1013.9 0.0
31/11:00am 15.8 10.6 7.3 57 4.3 SE 24 32 13 17 1016.3 1014.0 0.0
31/10:30am 15.8 11.1 7.6 58 4.2 SE 22 35 12 19 1016.3 1014.0 0.0
31/10:00am 15.2 10.2 8.0 62 3.7 SE 24 33 13 18 1016.4 1014.1 0.0
31/09:30am 13.5 7.6 7.7 68 2.9 SE 28 41 15 22 1016.2 1013.9 0.0
31/09:00am 12.9 7.9 8.2 73 2.4 SE 24 32 13 17 1016.3 1014.0 0.0
31/08:30am 11.9 5.8 8.4 79 1.8 SE 30 41 16 22 1015.8 1013.5 0.0
31/08:00am 11.0 6.1 9.8 92 0.6 ESE 26 35 14 19 1015.7 1013.4 0.0
31/07:30am 9.9 4.6 9.8 99 0.1 SE 28 39 15 21 1015.2 1012.9 0.0
31/07:00am 9.2 3.3 9.1 99 0.1 SE 30 39 16 21 1014.9 1012.7 0.0
31/06:30am 9.1 3.2 9.0 99 0.1 SE 30 39 16 21 1014.8 1012.6 0.0
31/06:00am 9.1 3.1 8.6 97 0.3 SE 30 41 16 22 1014.4 1012.1 0.0
31/05:30am 9.1 2.9 8.0 93 0.5 SE 30 39 16 21 1014.3 1012.0 0.0
31/05:00am 9.2 3.7 7.5 89 0.8 SE 26 35 14 19 1014.0 1011.7 0.0
31/04:30am 9.5 3.2 7.6 88 0.9 SE 30 43 16 23 1013.7 1011.4 0.0
31/04:00am 9.7 3.9 8.0 89 0.8 SE 28 39 15 21 1013.7 1011.4 0.0
31/03:30am 10.0 3.5 8.3 89 0.9 SSE 32 43 17 23 1013.5 1011.2 0.0
31/03:00am 10.3 4.1 9.2 93 0.6 SSE 32 43 17 23 1013.6 1011.3 0.0
31/02:30am 10.7 4.5 10.2 97 0.3 SSE 33 43 18 23 1013.8 1011.5 0.0
31/02:00am 10.9 5.0 10.4 97 0.3 SE 32 43 17 23 1013.9 1011.6 0.0
31/01:30am 10.9 5.3 10.0 94 0.5 SE 30 41 16 22 1014.1 1011.8 0.0
31/01:00am 11.1 5.0 9.9 92 0.6 SE 32 44 17 24 1014.2 1011.9 0.0
31/12:30am 11.3 5.2 9.9 91 0.7 SSE 32 41 17 22 1014.3 1012.0 0.0
31/12:00am 11.4 5.5 10.3 93 0.6 SE 32 43 17 23 1014.3 1012.0 0.0
 
Date/Time
CDT
Temp
°C
App
Temp
°C
Dew
Point
Rel
Hum
%
Delta-T
°C
Wind Press
QNH
hPa
Press
MSL
hPa
Rain
since 9 am
mm
Dir
 
Spd
km/h
Gust
km/h
Spd
kts
Gust
kts
30/11:30pm 11.5 5.6 10.4 93 0.6 SE 32 43 17 23 1014.5 1012.2 0.0
30/11:00pm 11.7 5.6 10.3 91 0.7 SSE 33 43 18 23 1014.6 1012.3 0.0
30/10:30pm 11.6 5.6 10.2 91 0.7 SE 32 44 17 24 1014.8 1012.6 0.0
30/10:00pm 11.9 6.6 9.8 87 1.1 SE 28 43 15 23 1014.8 1012.6 0.0
30/09:30pm 12.3 7.1 9.0 80 1.7 SE 26 37 14 20 1014.7 1012.5 0.0
30/09:00pm 13.0 8.1 8.3 73 2.4 SE 24 35 13 19 1014.5 1012.2 0.0
30/08:30pm 14.0 8.9 7.8 66 3.2 SE 24 33 13 18 1014.4 1012.1 0.0
30/08:00pm 15.7 11.0 7.7 59 4.1 SSE 22 32 12 17 1014.2 1011.9 0.0
30/07:30pm 17.2 12.1 7.8 54 4.9 SSE 24 35 13 19 1014.1 1011.8 0.0
30/07:00pm 18.9 14.6 7.7 48 5.9 SSE 20 30 11 16 1013.9 1011.6 0.0
30/06:30pm 19.9 15.0 7.0 43 6.7 SSE 22 35 12 19 1013.8 1011.5 0.0
30/06:00pm 21.0 16.5 6.9 40 7.4 SSE 20 32 11 17 1013.7 1011.4 0.0
30/05:30pm 21.6 16.6 4.7 33 8.5 SSE 20 33 11 18 1013.9 1011.6 0.0
30/05:00pm 22.8 18.3 4.3 30 9.3 SSE 17 32 9 17 1013.9 1011.6 0.0
30/04:30pm 23.0 17.9 3.0 27 9.9 SSE 19 28 10 15 1014.2 1011.9 0.0
30/04:00pm 23.2 18.3 2.1 25 10.2 SSE 17 26 9 14 1014.3 1012.0 0.0
30/03:30pm 22.6 17.3 2.1 26 9.9 SSE 19 30 10 16 1014.6 1012.3 0.0
30/03:00pm 22.9 18.2 2.9 27 9.8 SSW 17 32 9 17 1015.1 1012.8 0.0
30/02:30pm 22.4 17.1 3.0 28 9.5 S 20 28 11 15 1015.3 1013.0 0.0
30/02:00pm 21.6 16.5 2.8 29 9.1 SE 19 26 10 14 1015.6 1013.3 0.0
30/01:30pm 22.4 18.4 4.9 32 8.9 ESE 15 24 8 13 1015.8 1013.5 0.0
30/01:00pm 21.8 16.8 4.8 33 8.6 SE 20 30 11 16 1016.1 1013.8 0.0
30/12:30pm 20.2 14.8 4.7 36 7.7 SE 22 32 12 17 1016.6 1014.4 0.0
30/12:00pm 20.1 14.5 5.4 38 7.4 SE 24 37 13 20 1016.7 1014.5 0.0
30/11:30am 18.9 13.4 6.1 43 6.5 SE 24 32 13 17 1016.9 1014.7 0.0
30/11:00am 17.8 12.3 6.0 46 5.9 ESE 24 37 13 20 1016.7 1014.5 0.0
30/10:30am 17.4 12.1 6.9 50 5.4 ESE 24 35 13 19 1016.8 1014.6 0.0
30/10:00am 15.9 10.3 7.1 56 4.5 E 26 37 14 20 1017.2 1014.9 0.0
30/09:30am 15.2 9.6 7.0 58 4.1 E 26 35 14 19 1016.9 1014.7 0.0
30/09:00am 14.4 8.3 6.7 60 3.8 ESE 28 39 15 21 1016.8 1014.6 0.0
30/08:30am 13.4 7.3 6.5 63 3.4 E 28 39 15 21 1016.7 1014.5 0.0
30/08:00am 12.8 7.0 6.4 65 3.1 E 26 37 14 20 1016.6 1014.4 0.0
30/07:30am 11.8 4.8 5.9 67 2.8 ESE 32 39 17 21 1016.3 1014.0 0.0
30/07:00am 11.4 4.7 5.7 68 2.7 ESE 30 37 16 20 1016.1 1013.8 0.0
30/06:30am 11.1 4.0 5.6 69 2.6 ESE 32 37 17 20 1016.0 1013.7 0.0
30/06:00am 11.3 4.3 6.0 70 2.5 ESE 32 39 17 21 1015.8 1013.5 0.0
30/05:30am 11.7 4.8 6.4 70 2.6 ESE 32 39 17 21 1015.6 1013.3 0.0
30/05:00am 12.0 5.2 6.7 70 2.6 ESE 32 41 17 22 1015.5 1013.2 0.0
30/04:30am 12.4 5.7 7.3 71 2.5 ESE 32 39 17 21 1015.5 1013.2 0.0
30/04:00am 12.9 7.0 7.6 70 2.7 ESE 28 35 15 19 1015.7 1013.4 0.0
30/03:30am 13.1 7.8 8.4 73 2.4 SE 26 35 14 19 1015.9 1013.6 0.0
30/03:00am 13.5 8.0 9.0 74 2.3 SE 28 37 15 20 1015.9 1013.6 0.0
30/02:30am 13.6 8.8 10.4 81 1.7 SE 26 37 14 20 1015.8 1013.5 0.0
30/02:00am 13.8 8.9 11.3 85 1.4 SE 28 39 15 21 1015.6 1013.3 0.0
30/01:30am 13.8 8.8 12.2 90 0.9 SE 30 37 16 20 1015.4 1013.1 0.0
30/01:00am 13.9 9.7 12.5 91 0.8 SE 26 35 14 19 1015.5 1013.2 0.0
30/12:30am 13.9 9.4 12.6 92 0.7 SSE 28 35 15 19 1015.6 1013.3 0.0
30/12:00am 14.2 9.7 12.6 90 0.9 SSE 28 39 15 21 1015.7 1013.4 0.0
 
Date/Time
CDT
Temp
°C
App
Temp
°C
Dew
Point
Rel
Hum
%
Delta-T
°C
Wind Press
QNH
hPa
Press
MSL
hPa
Rain
since 9 am
mm
Dir
 
Spd
km/h
Gust
km/h
Spd
kts
Gust
kts
29/11:30pm 14.4 9.8 12.3 87 1.2 SE 28 37 15 20 1015.9 1013.6 0.0
29/11:00pm 14.5 9.7 11.8 84 1.5 SSE 28 41 15 22 1016.0 1013.7 0.0
29/10:30pm 14.8 9.9 11.4 80 1.9 SSE 28 35 15 19 1016.1 1013.8 0.0
29/10:00pm 15.1 10.5 10.9 76 2.3 SSE 26 43 14 23 1016.2 1013.9 0.0
29/09:30pm 15.3 10.2 10.7 74 2.5 SSE 28 39 15 21 1016.2 1013.9 0.0
29/09:00pm 16.1 12.0 10.0 67 3.3 SSE 22 35 12 19 1016.1 1013.8 0.0

Other Formats:

Comma delimited format used in spreadsheet applications
http://www.bom.gov.au/fwo/IDS60801/IDS60801.94678.axf

JavaScript Object Notation format (JSON) in row-major order
http://www.bom.gov.au/fwo/IDS60801/IDS60801.94678.json